sensor_id;sensor_type;location;lat;lon;timestamp;P1;durP1;ratioP1;P2;durP2;ratioP2
27895;SDS011;15241;48.374;10.876;2022-12-07T00:00:15;6.80;;;5.12;;
27895;SDS011;15241;48.374;10.876;2022-12-07T00:05:15;7.12;;;5.35;;
27895;SDS011;15241;48.374;10.876;2022-12-07T00:10:14;9.00;;;5.78;;
27895;SDS011;15241;48.374;10.876;2022-12-07T00:15:13;9.38;;;5.22;;
27895;SDS011;15241;48.374;10.876;2022-12-07T00:20:13;7.67;;;5.72;;
27895;SDS011;15241;48.374;10.876;2022-12-07T00:25:12;7.92;;;5.75;;
27895;SDS011;15241;48.374;10.876;2022-12-07T00:30:11;8.15;;;5.97;;
27895;SDS011;15241;48.374;10.876;2022-12-07T00:35:11;10.53;;;6.47;;
27895;SDS011;15241;48.374;10.876;2022-12-07T00:40:11;9.03;;;5.92;;
27895;SDS011;15241;48.374;10.876;2022-12-07T00:45:10;9.50;;;6.25;;
27895;SDS011;15241;48.374;10.876;2022-12-07T00:50:10;7.90;;;6.08;;
27895;SDS011;15241;48.374;10.876;2022-12-07T00:55:08;7.87;;;5.80;;
27895;SDS011;15241;48.374;10.876;2022-12-07T01:00:08;7.55;;;5.53;;
27895;SDS011;15241;48.374;10.876;2022-12-07T01:05:08;8.78;;;5.75;;
27895;SDS011;15241;48.374;10.876;2022-12-07T01:10:08;6.97;;;5.00;;
27895;SDS011;15241;48.374;10.876;2022-12-07T01:15:09;8.55;;;6.40;;
27895;SDS011;15241;48.374;10.876;2022-12-07T01:20:10;7.87;;;5.92;;
27895;SDS011;15241;48.374;10.876;2022-12-07T01:25:10;8.10;;;5.33;;
27895;SDS011;15241;48.374;10.876;2022-12-07T01:30:11;9.15;;;5.67;;
27895;SDS011;15241;48.374;10.876;2022-12-07T01:35:11;9.75;;;5.90;;
27895;SDS011;15241;48.374;10.876;2022-12-07T01:40:11;7.90;;;5.33;;
27895;SDS011;15241;48.374;10.876;2022-12-07T01:45:34;6.92;;;5.65;;
27895;SDS011;15241;48.374;10.876;2022-12-07T01:50:38;7.33;;;5.47;;
27895;SDS011;15241;48.374;10.876;2022-12-07T01:55:38;7.33;;;6.00;;
27895;SDS011;15241;48.374;10.876;2022-12-07T02:00:39;8.78;;;5.45;;
27895;SDS011;15241;48.374;10.876;2022-12-07T02:05:40;8.55;;;5.78;;
27895;SDS011;15241;48.374;10.876;2022-12-07T02:10:40;11.45;;;5.90;;
27895;SDS011;15241;48.374;10.876;2022-12-07T02:15:44;9.60;;;6.03;;
27895;SDS011;15241;48.374;10.876;2022-12-07T02:20:45;7.17;;;5.42;;
27895;SDS011;15241;48.374;10.876;2022-12-07T02:26:05;8.20;;;5.60;;
27895;SDS011;15241;48.374;10.876;2022-12-07T02:36:49;9.10;;;6.22;;
27895;SDS011;15241;48.374;10.876;2022-12-07T02:41:51;9.53;;;5.63;;
27895;SDS011;15241;48.374;10.876;2022-12-07T02:46:59;8.90;;;6.12;;
27895;SDS011;15241;48.374;10.876;2022-12-07T02:52:00;7.97;;;5.97;;
27895;SDS011;15241;48.374;10.876;2022-12-07T02:57:04;9.10;;;6.45;;
27895;SDS011;15241;48.374;10.876;2022-12-07T03:02:14;8.98;;;6.05;;
27895;SDS011;15241;48.374;10.876;2022-12-07T03:07:18;7.92;;;5.95;;
27895;SDS011;15241;48.374;10.876;2022-12-07T03:12:18;8.93;;;6.20;;
27895;SDS011;15241;48.374;10.876;2022-12-07T03:17:22;9.05;;;6.17;;
27895;SDS011;15241;48.374;10.876;2022-12-07T03:22:22;9.53;;;6.15;;
27895;SDS011;15241;48.374;10.876;2022-12-07T03:27:23;7.20;;;5.40;;
27895;SDS011;15241;48.374;10.876;2022-12-07T03:32:25;9.60;;;6.00;;
27895;SDS011;15241;48.374;10.876;2022-12-07T03:37:28;9.25;;;6.75;;
27895;SDS011;15241;48.374;10.876;2022-12-07T03:42:29;8.75;;;6.40;;
27895;SDS011;15241;48.374;10.876;2022-12-07T03:47:31;8.65;;;6.00;;
27895;SDS011;15241;48.374;10.876;2022-12-07T03:52:33;8.63;;;6.62;;
27895;SDS011;15241;48.374;10.876;2022-12-07T03:57:34;8.23;;;6.28;;
27895;SDS011;15241;48.374;10.876;2022-12-07T04:02:34;10.48;;;6.55;;
27895;SDS011;15241;48.374;10.876;2022-12-07T04:07:34;8.95;;;6.20;;
27895;SDS011;15241;48.374;10.876;2022-12-07T04:12:34;8.80;;;6.45;;
27895;SDS011;15241;48.374;10.876;2022-12-07T04:17:34;8.50;;;6.28;;
27895;SDS011;15241;48.374;10.876;2022-12-07T04:22:33;9.28;;;6.55;;
27895;SDS011;15241;48.374;10.876;2022-12-07T04:27:32;10.35;;;7.78;;
27895;SDS011;15241;48.374;10.876;2022-12-07T04:32:32;9.55;;;7.08;;
27895;SDS011;15241;48.374;10.876;2022-12-07T04:37:31;10.30;;;7.37;;
27895;SDS011;15241;48.374;10.876;2022-12-07T04:42:30;9.75;;;7.10;;
27895;SDS011;15241;48.374;10.876;2022-12-07T04:47:29;10.43;;;6.90;;
27895;SDS011;15241;48.374;10.876;2022-12-07T04:52:28;11.15;;;7.30;;
27895;SDS011;15241;48.374;10.876;2022-12-07T04:57:27;9.83;;;6.90;;
27895;SDS011;15241;48.374;10.876;2022-12-07T05:02:26;12.18;;;7.87;;
27895;SDS011;15241;48.374;10.876;2022-12-07T05:07:25;10.15;;;7.50;;
27895;SDS011;15241;48.374;10.876;2022-12-07T05:12:24;9.20;;;6.97;;
27895;SDS011;15241;48.374;10.876;2022-12-07T05:17:23;14.50;;;9.70;;
27895;SDS011;15241;48.374;10.876;2022-12-07T05:22:22;9.15;;;6.65;;
27895;SDS011;15241;48.374;10.876;2022-12-07T05:27:21;10.50;;;7.90;;
27895;SDS011;15241;48.374;10.876;2022-12-07T05:32:20;12.75;;;7.78;;
27895;SDS011;15241;48.374;10.876;2022-12-07T05:37:18;12.20;;;8.23;;
27895;SDS011;15241;48.374;10.876;2022-12-07T05:42:17;10.45;;;8.13;;
27895;SDS011;15241;48.374;10.876;2022-12-07T05:47:16;11.95;;;8.50;;
27895;SDS011;15241;48.374;10.876;2022-12-07T05:52:15;14.83;;;8.50;;
27895;SDS011;15241;48.374;10.876;2022-12-07T05:57:14;11.40;;;7.83;;
27895;SDS011;15241;48.374;10.876;2022-12-07T06:02:14;17.15;;;10.25;;
27895;SDS011;15241;48.374;10.876;2022-12-07T06:07:14;12.10;;;8.48;;
27895;SDS011;15241;48.374;10.876;2022-12-07T06:12:14;10.25;;;7.65;;
27895;SDS011;15241;48.374;10.876;2022-12-07T06:17:13;10.85;;;7.72;;
27895;SDS011;15241;48.374;10.876;2022-12-07T06:22:12;14.83;;;9.48;;
27895;SDS011;15241;48.374;10.876;2022-12-07T06:27:11;17.05;;;9.35;;
27895;SDS011;15241;48.374;10.876;2022-12-07T06:32:10;14.73;;;9.05;;
27895;SDS011;15241;48.374;10.876;2022-12-07T06:37:09;13.70;;;8.65;;
27895;SDS011;15241;48.374;10.876;2022-12-07T06:42:08;34.40;;;21.55;;
27895;SDS011;15241;48.374;10.876;2022-12-07T06:52:13;17.27;;;9.70;;
27895;SDS011;15241;48.374;10.876;2022-12-07T06:57:12;16.80;;;9.50;;
27895;SDS011;15241;48.374;10.876;2022-12-07T07:02:11;15.80;;;9.90;;
27895;SDS011;15241;48.374;10.876;2022-12-07T07:07:10;16.02;;;10.50;;
27895;SDS011;15241;48.374;10.876;2022-12-07T07:12:09;16.62;;;10.00;;
27895;SDS011;15241;48.374;10.876;2022-12-07T07:17:08;17.92;;;10.50;;
27895;SDS011;15241;48.374;10.876;2022-12-07T07:22:07;23.95;;;11.18;;
27895;SDS011;15241;48.374;10.876;2022-12-07T07:27:06;21.02;;;11.53;;
27895;SDS011;15241;48.374;10.876;2022-12-07T07:32:05;17.90;;;10.65;;
27895;SDS011;15241;48.374;10.876;2022-12-07T07:37:04;14.30;;;10.13;;
27895;SDS011;15241;48.374;10.876;2022-12-07T07:42:03;15.28;;;9.50;;
27895;SDS011;15241;48.374;10.876;2022-12-07T07:47:03;15.50;;;10.08;;
27895;SDS011;15241;48.374;10.876;2022-12-07T07:52:02;21.20;;;12.68;;
27895;SDS011;15241;48.374;10.876;2022-12-07T07:57:03;17.35;;;11.48;;
27895;SDS011;15241;48.374;10.876;2022-12-07T08:02:02;18.12;;;10.98;;
27895;SDS011;15241;48.374;10.876;2022-12-07T08:07:01;18.02;;;10.20;;
27895;SDS011;15241;48.374;10.876;2022-12-07T08:12:00;17.30;;;10.48;;
27895;SDS011;15241;48.374;10.876;2022-12-07T08:16:59;19.87;;;10.72;;
27895;SDS011;15241;48.374;10.876;2022-12-07T08:21:58;17.90;;;11.10;;
27895;SDS011;15241;48.374;10.876;2022-12-07T08:26:57;18.92;;;11.40;;
27895;SDS011;15241;48.374;10.876;2022-12-07T08:31:56;16.75;;;11.85;;
27895;SDS011;15241;48.374;10.876;2022-12-07T08:36:55;17.85;;;10.35;;
27895;SDS011;15241;48.374;10.876;2022-12-07T08:41:54;15.43;;;10.05;;
27895;SDS011;15241;48.374;10.876;2022-12-07T08:46:53;16.85;;;9.98;;
27895;SDS011;15241;48.374;10.876;2022-12-07T08:51:55;15.58;;;10.78;;
27895;SDS011;15241;48.374;10.876;2022-12-07T08:56:54;16.00;;;9.63;;
27895;SDS011;15241;48.374;10.876;2022-12-07T09:01:53;13.98;;;8.93;;
27895;SDS011;15241;48.374;10.876;2022-12-07T09:06:52;14.40;;;9.20;;
27895;SDS011;15241;48.374;10.876;2022-12-07T09:11:52;16.30;;;9.55;;
27895;SDS011;15241;48.374;10.876;2022-12-07T09:16:51;13.25;;;8.98;;
27895;SDS011;15241;48.374;10.876;2022-12-07T09:21:50;13.80;;;8.63;;
27895;SDS011;15241;48.374;10.876;2022-12-07T09:26:49;12.70;;;8.75;;
27895;SDS011;15241;48.374;10.876;2022-12-07T09:31:48;13.35;;;9.30;;
27895;SDS011;15241;48.374;10.876;2022-12-07T09:36:47;16.00;;;9.78;;
27895;SDS011;15241;48.374;10.876;2022-12-07T09:41:46;13.00;;;8.58;;
27895;SDS011;15241;48.374;10.876;2022-12-07T09:46:45;12.07;;;8.78;;
27895;SDS011;15241;48.374;10.876;2022-12-07T09:51:44;11.25;;;8.45;;
27895;SDS011;15241;48.374;10.876;2022-12-07T09:56:44;13.88;;;8.88;;
27895;SDS011;15241;48.374;10.876;2022-12-07T10:01:43;10.10;;;7.58;;
27895;SDS011;15241;48.374;10.876;2022-12-07T10:06:44;10.55;;;7.67;;
27895;SDS011;15241;48.374;10.876;2022-12-07T10:17:27;11.80;;;9.08;;
27895;SDS011;15241;48.374;10.876;2022-12-07T10:22:28;8.45;;;6.55;;
27895;SDS011;15241;48.374;10.876;2022-12-07T10:27:29;7.17;;;5.78;;
27895;SDS011;15241;48.374;10.876;2022-12-07T10:32:31;6.50;;;5.25;;
27895;SDS011;15241;48.374;10.876;2022-12-07T10:37:31;9.20;;;5.42;;
27895;SDS011;15241;48.374;10.876;2022-12-07T10:42:33;8.35;;;5.17;;
27895;SDS011;15241;48.374;10.876;2022-12-07T10:47:33;8.70;;;5.92;;
27895;SDS011;15241;48.374;10.876;2022-12-07T10:52:54;8.63;;;6.00;;
27895;SDS011;15241;48.374;10.876;2022-12-07T10:58:02;7.80;;;6.12;;
27895;SDS011;15241;48.374;10.876;2022-12-07T11:03:23;8.53;;;6.15;;
27895;SDS011;15241;48.374;10.876;2022-12-07T11:08:42;11.48;;;8.20;;
27895;SDS011;15241;48.374;10.876;2022-12-07T11:13:56;12.40;;;6.25;;
27895;SDS011;15241;48.374;10.876;2022-12-07T11:19:00;13.60;;;6.65;;
27895;SDS011;15241;48.374;10.876;2022-12-07T11:24:15;8.53;;;5.62;;
27895;SDS011;15241;48.374;10.876;2022-12-07T11:29:22;7.03;;;5.20;;
27895;SDS011;15241;48.374;10.876;2022-12-07T11:34:28;9.15;;;5.47;;
27895;SDS011;15241;48.374;10.876;2022-12-07T11:39:31;7.50;;;5.62;;
27895;SDS011;15241;48.374;10.876;2022-12-07T11:44:33;7.58;;;5.10;;
27895;SDS011;15241;48.374;10.876;2022-12-07T11:49:40;8.85;;;5.35;;
27895;SDS011;15241;48.374;10.876;2022-12-07T11:54:40;7.00;;;5.03;;
27895;SDS011;15241;48.374;10.876;2022-12-07T11:59:42;6.80;;;4.75;;
27895;SDS011;15241;48.374;10.876;2022-12-07T12:04:47;9.03;;;5.87;;
27895;SDS011;15241;48.374;10.876;2022-12-07T12:09:56;11.53;;;5.40;;
27895;SDS011;15241;48.374;10.876;2022-12-07T12:15:02;7.20;;;5.20;;
27895;SDS011;15241;48.374;10.876;2022-12-07T12:25:24;7.33;;;4.28;;
27895;SDS011;15241;48.374;10.876;2022-12-07T12:30:29;6.72;;;4.50;;
27895;SDS011;15241;48.374;10.876;2022-12-07T12:35:30;4.90;;;3.80;;
27895;SDS011;15241;48.374;10.876;2022-12-07T12:40:41;6.10;;;3.33;;
27895;SDS011;15241;48.374;10.876;2022-12-07T12:45:41;7.47;;;4.30;;
27895;SDS011;15241;48.374;10.876;2022-12-07T12:50:40;7.72;;;3.75;;
27895;SDS011;15241;48.374;10.876;2022-12-07T13:01:38;7.22;;;4.42;;
27895;SDS011;15241;48.374;10.876;2022-12-07T13:06:38;8.95;;;4.22;;
27895;SDS011;15241;48.374;10.876;2022-12-07T13:11:40;7.30;;;4.35;;
27895;SDS011;15241;48.374;10.876;2022-12-07T13:16:47;6.05;;;4.03;;
27895;SDS011;15241;48.374;10.876;2022-12-07T13:21:46;8.55;;;4.80;;
27895;SDS011;15241;48.374;10.876;2022-12-07T13:26:46;8.93;;;4.08;;
27895;SDS011;15241;48.374;10.876;2022-12-07T13:31:45;7.60;;;4.47;;
27895;SDS011;15241;48.374;10.876;2022-12-07T13:36:46;8.93;;;4.97;;
27895;SDS011;15241;48.374;10.876;2022-12-07T13:47:06;8.23;;;4.30;;
27895;SDS011;15241;48.374;10.876;2022-12-07T13:52:16;7.22;;;4.58;;
27895;SDS011;15241;48.374;10.876;2022-12-07T13:57:16;8.93;;;4.78;;
27895;SDS011;15241;48.374;10.876;2022-12-07T14:02:21;7.40;;;4.20;;
27895;SDS011;15241;48.374;10.876;2022-12-07T14:07:22;7.35;;;4.47;;
27895;SDS011;15241;48.374;10.876;2022-12-07T14:12:23;6.75;;;4.62;;
27895;SDS011;15241;48.374;10.876;2022-12-07T14:17:24;8.45;;;4.12;;
27895;SDS011;15241;48.374;10.876;2022-12-07T14:22:33;6.65;;;3.90;;
27895;SDS011;15241;48.374;10.876;2022-12-07T14:27:33;7.85;;;3.67;;
27895;SDS011;15241;48.374;10.876;2022-12-07T14:32:34;8.03;;;4.22;;
27895;SDS011;15241;48.374;10.876;2022-12-07T14:37:34;6.58;;;3.92;;
27895;SDS011;15241;48.374;10.876;2022-12-07T14:42:34;6.28;;;4.22;;
27895;SDS011;15241;48.374;10.876;2022-12-07T14:47:33;6.80;;;4.15;;
27895;SDS011;15241;48.374;10.876;2022-12-07T14:52:32;6.40;;;4.05;;
27895;SDS011;15241;48.374;10.876;2022-12-07T14:57:31;9.20;;;4.20;;
27895;SDS011;15241;48.374;10.876;2022-12-07T15:02:30;6.80;;;4.22;;
27895;SDS011;15241;48.374;10.876;2022-12-07T15:07:29;6.92;;;4.30;;
27895;SDS011;15241;48.374;10.876;2022-12-07T15:12:28;7.95;;;4.65;;
27895;SDS011;15241;48.374;10.876;2022-12-07T15:17:27;11.30;;;4.40;;
27895;SDS011;15241;48.374;10.876;2022-12-07T15:22:26;8.10;;;4.53;;
27895;SDS011;15241;48.374;10.876;2022-12-07T15:27:25;8.70;;;4.42;;
27895;SDS011;15241;48.374;10.876;2022-12-07T15:32:24;7.92;;;4.87;;
27895;SDS011;15241;48.374;10.876;2022-12-07T15:37:23;12.82;;;5.40;;
27895;SDS011;15241;48.374;10.876;2022-12-07T15:42:22;8.20;;;4.70;;
27895;SDS011;15241;48.374;10.876;2022-12-07T15:47:20;7.17;;;4.47;;
27895;SDS011;15241;48.374;10.876;2022-12-07T15:52:20;9.43;;;5.37;;
27895;SDS011;15241;48.374;10.876;2022-12-07T15:57:19;10.23;;;5.25;;
27895;SDS011;15241;48.374;10.876;2022-12-07T16:02:18;9.03;;;5.67;;
27895;SDS011;15241;48.374;10.876;2022-12-07T16:07:17;8.80;;;4.85;;
27895;SDS011;15241;48.374;10.876;2022-12-07T16:12:16;11.85;;;5.78;;
27895;SDS011;15241;48.374;10.876;2022-12-07T16:17:15;20.20;;;11.88;;
27895;SDS011;15241;48.374;10.876;2022-12-07T16:22:14;19.73;;;11.57;;
27895;SDS011;15241;48.374;10.876;2022-12-07T16:27:13;13.90;;;7.60;;
27895;SDS011;15241;48.374;10.876;2022-12-07T16:32:12;11.15;;;6.85;;
27895;SDS011;15241;48.374;10.876;2022-12-07T16:37:11;13.48;;;6.22;;
27895;SDS011;15241;48.374;10.876;2022-12-07T16:42:10;15.35;;;6.70;;
27895;SDS011;15241;48.374;10.876;2022-12-07T16:47:09;13.53;;;6.62;;
27895;SDS011;15241;48.374;10.876;2022-12-07T16:52:08;11.88;;;6.17;;
27895;SDS011;15241;48.374;10.876;2022-12-07T16:57:07;14.53;;;7.08;;
27895;SDS011;15241;48.374;10.876;2022-12-07T17:02:06;12.18;;;7.40;;
27895;SDS011;15241;48.374;10.876;2022-12-07T17:07:05;13.08;;;6.72;;
27895;SDS011;15241;48.374;10.876;2022-12-07T17:12:05;11.75;;;7.42;;
27895;SDS011;15241;48.374;10.876;2022-12-07T17:17:04;17.07;;;8.20;;
27895;SDS011;15241;48.374;10.876;2022-12-07T17:22:03;14.05;;;7.33;;
27895;SDS011;15241;48.374;10.876;2022-12-07T17:27:02;15.05;;;8.00;;
27895;SDS011;15241;48.374;10.876;2022-12-07T17:32:01;17.30;;;8.83;;
27895;SDS011;15241;48.374;10.876;2022-12-07T17:37:00;14.58;;;9.13;;
27895;SDS011;15241;48.374;10.876;2022-12-07T17:41:59;15.32;;;8.15;;
27895;SDS011;15241;48.374;10.876;2022-12-07T17:46:58;17.17;;;8.25;;
27895;SDS011;15241;48.374;10.876;2022-12-07T17:51:58;18.65;;;10.60;;
27895;SDS011;15241;48.374;10.876;2022-12-07T17:56:57;16.20;;;9.60;;
27895;SDS011;15241;48.374;10.876;2022-12-07T18:01:55;18.15;;;10.70;;
27895;SDS011;15241;48.374;10.876;2022-12-07T18:06:54;15.72;;;10.85;;
27895;SDS011;15241;48.374;10.876;2022-12-07T18:11:53;17.60;;;9.88;;
27895;SDS011;15241;48.374;10.876;2022-12-07T18:16:52;18.00;;;10.78;;
27895;SDS011;15241;48.374;10.876;2022-12-07T18:21:51;20.50;;;11.85;;
27895;SDS011;15241;48.374;10.876;2022-12-07T18:26:50;27.70;;;14.73;;
27895;SDS011;15241;48.374;10.876;2022-12-07T18:31:49;27.48;;;13.30;;
27895;SDS011;15241;48.374;10.876;2022-12-07T18:36:48;19.85;;;11.40;;
27895;SDS011;15241;48.374;10.876;2022-12-07T18:41:47;16.42;;;10.00;;
27895;SDS011;15241;48.374;10.876;2022-12-07T18:46:46;17.90;;;11.48;;
27895;SDS011;15241;48.374;10.876;2022-12-07T18:51:45;20.62;;;11.95;;
27895;SDS011;15241;48.374;10.876;2022-12-07T18:56:44;18.90;;;12.23;;
27895;SDS011;15241;48.374;10.876;2022-12-07T19:01:43;19.00;;;12.20;;
27895;SDS011;15241;48.374;10.876;2022-12-07T19:06:44;24.43;;;11.88;;
27895;SDS011;15241;48.374;10.876;2022-12-07T19:11:44;22.42;;;12.93;;
27895;SDS011;15241;48.374;10.876;2022-12-07T19:16:43;18.95;;;13.08;;
27895;SDS011;15241;48.374;10.876;2022-12-07T19:21:44;20.17;;;12.30;;
27895;SDS011;15241;48.374;10.876;2022-12-07T19:26:43;22.10;;;11.70;;
27895;SDS011;15241;48.374;10.876;2022-12-07T19:31:42;21.07;;;11.63;;
27895;SDS011;15241;48.374;10.876;2022-12-07T19:36:41;19.98;;;11.93;;
27895;SDS011;15241;48.374;10.876;2022-12-07T19:41:43;17.27;;;9.83;;
27895;SDS011;15241;48.374;10.876;2022-12-07T19:46:42;15.08;;;9.38;;
27895;SDS011;15241;48.374;10.876;2022-12-07T19:51:43;18.67;;;9.58;;
27895;SDS011;15241;48.374;10.876;2022-12-07T19:56:43;23.40;;;11.75;;
27895;SDS011;15241;48.374;10.876;2022-12-07T20:01:43;18.82;;;11.18;;
27895;SDS011;15241;48.374;10.876;2022-12-07T20:06:42;20.82;;;10.80;;
27895;SDS011;15241;48.374;10.876;2022-12-07T20:11:42;17.60;;;10.23;;
27895;SDS011;15241;48.374;10.876;2022-12-07T20:16:41;23.35;;;12.55;;
27895;SDS011;15241;48.374;10.876;2022-12-07T20:21:41;20.68;;;11.22;;
27895;SDS011;15241;48.374;10.876;2022-12-07T20:26:40;20.43;;;11.57;;
27895;SDS011;15241;48.374;10.876;2022-12-07T20:31:39;21.50;;;12.50;;
27895;SDS011;15241;48.374;10.876;2022-12-07T20:36:39;18.98;;;11.22;;
27895;SDS011;15241;48.374;10.876;2022-12-07T20:41:39;20.02;;;11.90;;
27895;SDS011;15241;48.374;10.876;2022-12-07T20:46:38;21.20;;;11.55;;
27895;SDS011;15241;48.374;10.876;2022-12-07T20:51:36;19.10;;;10.53;;
27895;SDS011;15241;48.374;10.876;2022-12-07T20:56:36;17.77;;;10.70;;
27895;SDS011;15241;48.374;10.876;2022-12-07T21:01:35;15.70;;;10.43;;
27895;SDS011;15241;48.374;10.876;2022-12-07T21:06:34;19.85;;;10.95;;
27895;SDS011;15241;48.374;10.876;2022-12-07T21:11:33;19.15;;;9.98;;
27895;SDS011;15241;48.374;10.876;2022-12-07T21:16:32;17.50;;;11.55;;
27895;SDS011;15241;48.374;10.876;2022-12-07T21:21:31;21.30;;;12.13;;
27895;SDS011;15241;48.374;10.876;2022-12-07T21:26:31;19.98;;;12.05;;
27895;SDS011;15241;48.374;10.876;2022-12-07T21:31:31;17.75;;;10.60;;
27895;SDS011;15241;48.374;10.876;2022-12-07T21:36:30;17.75;;;11.45;;
27895;SDS011;15241;48.374;10.876;2022-12-07T21:41:30;23.60;;;12.23;;
27895;SDS011;15241;48.374;10.876;2022-12-07T21:46:31;21.45;;;10.98;;
27895;SDS011;15241;48.374;10.876;2022-12-07T21:51:30;22.05;;;12.23;;
27895;SDS011;15241;48.374;10.876;2022-12-07T21:56:30;18.02;;;10.32;;
27895;SDS011;15241;48.374;10.876;2022-12-07T22:01:31;17.62;;;11.22;;
27895;SDS011;15241;48.374;10.876;2022-12-07T22:06:32;18.35;;;11.18;;
27895;SDS011;15241;48.374;10.876;2022-12-07T22:11:32;17.10;;;10.20;;
27895;SDS011;15241;48.374;10.876;2022-12-07T22:16:31;20.75;;;11.73;;
27895;SDS011;15241;48.374;10.876;2022-12-07T22:21:30;16.70;;;10.00;;
27895;SDS011;15241;48.374;10.876;2022-12-07T22:26:30;16.32;;;10.10;;
27895;SDS011;15241;48.374;10.876;2022-12-07T22:31:29;17.87;;;10.25;;
27895;SDS011;15241;48.374;10.876;2022-12-07T22:36:28;20.23;;;9.63;;
27895;SDS011;15241;48.374;10.876;2022-12-07T22:41:27;19.00;;;9.40;;
27895;SDS011;15241;48.374;10.876;2022-12-07T22:46:28;20.70;;;11.33;;
27895;SDS011;15241;48.374;10.876;2022-12-07T22:51:28;17.57;;;10.00;;
27895;SDS011;15241;48.374;10.876;2022-12-07T22:56:29;16.40;;;9.38;;
27895;SDS011;15241;48.374;10.876;2022-12-07T23:01:29;19.70;;;10.45;;
27895;SDS011;15241;48.374;10.876;2022-12-07T23:06:29;16.65;;;9.73;;
27895;SDS011;15241;48.374;10.876;2022-12-07T23:11:30;17.20;;;9.98;;
27895;SDS011;15241;48.374;10.876;2022-12-07T23:16:30;18.35;;;11.73;;
27895;SDS011;15241;48.374;10.876;2022-12-07T23:21:30;18.65;;;10.58;;
27895;SDS011;15241;48.374;10.876;2022-12-07T23:26:29;21.85;;;12.55;;
27895;SDS011;15241;48.374;10.876;2022-12-07T23:31:28;20.97;;;12.10;;
27895;SDS011;15241;48.374;10.876;2022-12-07T23:36:27;21.95;;;12.60;;
27895;SDS011;15241;48.374;10.876;2022-12-07T23:41:27;21.77;;;11.90;;
27895;SDS011;15241;48.374;10.876;2022-12-07T23:46:27;21.07;;;11.75;;
27895;SDS011;15241;48.374;10.876;2022-12-07T23:51:27;22.15;;;12.35;;
27895;SDS011;15241;48.374;10.876;2022-12-07T23:56:26;21.07;;;12.78;;
